KBOK

Brookings Airport

Brookings, Oregon, USA
METAR KBOK 191456Z AUTO 00000KT 9SM CLR 04/03 A3008 RMK AO2 SLP202 T00390033 51007
Observed Flight Rules
Nov-19 @ 14:56 UTC (an hour ago) Visual Flight Rules
Visibility Clouds
9 miles
  • Clear skies
Temperatures Readings
Current 4°C / 39°F
Dewpoint 3°C / 37°F
Humidity 93%
Altimeter 30.08" Hg
Pressure 1020.2 hPa
Elevation 140
METAR KBOK 191456Z AUTO 00000KT 9SM CLR 04/03 A3008 RMK AO2 SLP202 T00390033 51007
Observed Flight Rules
Nov-19 @ 14:56 UTC
(an hour ago)
VFR
Clouds
  • Clear skies
Temperature Dewpoint
4°C / 39°F 3°C / 37°F
Humidity Altimeter Pressure
93% 30.08" Hg 1020.2 hPa